sensor_id;sensor_type;location;lat;lon;timestamp;pressure;altitude;pressure_sealevel;temperature;humidity
55550;BME280;41397;49.972;18.944;2023-12-29T00:00:14;101887.80;;;10.58;71.34
55550;BME280;41397;49.972;18.944;2023-12-29T00:03:20;101889.67;;;10.57;70.87
55550;BME280;41397;49.972;18.944;2023-12-29T00:06:21;101888.67;;;10.58;70.91
55550;BME280;41397;49.972;18.944;2023-12-29T00:09:22;101879.59;;;10.58;70.83
55550;BME280;41397;49.972;18.944;2023-12-29T00:12:24;101866.80;;;10.58;70.92
55550;BME280;41397;49.972;18.944;2023-12-29T00:15:25;101862.31;;;10.57;70.86
55550;BME280;41397;49.972;18.944;2023-12-29T00:18:26;101872.18;;;10.60;70.73
55550;BME280;41397;49.972;18.944;2023-12-29T00:21:27;101856.55;;;10.62;70.83
55550;BME280;41397;49.972;18.944;2023-12-29T00:24:29;101853.91;;;10.60;70.76
55550;BME280;41397;49.972;18.944;2023-12-29T00:27:32;101862.23;;;10.59;70.87
55550;BME280;41397;49.972;18.944;2023-12-29T00:30:33;101853.82;;;10.62;70.81
55550;BME280;41397;49.972;18.944;2023-12-29T00:33:35;101855.56;;;10.63;70.72
55550;BME280;41397;49.972;18.944;2023-12-29T00:36:36;101855.56;;;10.63;70.88
55550;BME280;41397;49.972;18.944;2023-12-29T00:39:38;101847.48;;;10.61;70.61
55550;BME280;41397;49.972;18.944;2023-12-29T00:42:42;101843.66;;;10.64;70.45
55550;BME280;41397;49.972;18.944;2023-12-29T00:45:43;101838.08;;;10.65;70.58
55550;BME280;41397;49.972;18.944;2023-12-29T00:48:44;101829.78;;;10.67;70.57
55550;BME280;41397;49.972;18.944;2023-12-29T00:51:47;101834.26;;;10.68;70.63
55550;BME280;41397;49.972;18.944;2023-12-29T00:54:48;101834.26;;;10.68;70.73
55550;BME280;41397;49.972;18.944;2023-12-29T00:57:50;101816.10;;;10.67;70.78
55550;BME280;41397;49.972;18.944;2023-12-29T01:00:51;101816.10;;;10.67;70.35
55550;BME280;41397;49.972;18.944;2023-12-29T01:03:53;101825.18;;;10.68;70.87
55550;BME280;41397;49.972;18.944;2023-12-29T01:06:55;101836.01;;;10.69;70.73
55550;BME280;41397;49.972;18.944;2023-12-29T01:09:56;101852.41;;;10.69;70.56
55550;BME280;41397;49.972;18.944;2023-12-29T01:12:57;101852.33;;;10.71;70.39
55550;BME280;41397;49.972;18.944;2023-12-29T01:16:01;101849.59;;;10.71;70.62
55550;BME280;41397;49.972;18.944;2023-12-29T01:19:02;101833.38;;;10.68;70.71
55550;BME280;41397;49.972;18.944;2023-12-29T01:22:03;101829.66;;;10.69;70.76
55550;BME280;41397;49.972;18.944;2023-12-29T01:25:05;101817.77;;;10.70;70.47
55550;BME280;41397;49.972;18.944;2023-12-29T01:28:09;101816.77;;;10.71;70.74
55550;BME280;41397;49.972;18.944;2023-12-29T01:31:10;101807.57;;;10.72;70.61
55550;BME280;41397;49.972;18.944;2023-12-29T01:34:14;101802.01;;;10.73;70.38
55550;BME280;41397;49.972;18.944;2023-12-29T01:37:15;101793.80;;;10.73;70.37
55550;BME280;41397;49.972;18.944;2023-12-29T01:40:17;101789.32;;;10.72;70.09
55550;BME280;41397;49.972;18.944;2023-12-29T01:43:18;101792.59;;;10.77;69.92
55550;BME280;41397;49.972;18.944;2023-12-29T01:46:19;101793.50;;;10.78;69.97
55550;BME280;41397;49.972;18.944;2023-12-29T01:49:21;101785.95;;;10.81;69.69
55550;BME280;41397;49.972;18.944;2023-12-29T01:52:25;101790.55;;;10.81;69.48
55550;BME280;41397;49.972;18.944;2023-12-29T01:55:26;101776.55;;;10.85;69.49
55550;BME280;41397;49.972;18.944;2023-12-29T01:58:27;101777.53;;;10.84;69.42
55550;BME280;41397;49.972;18.944;2023-12-29T02:01:29;101778.32;;;10.86;69.28
55550;BME280;41397;49.972;18.944;2023-12-29T02:04:33;101781.94;;;10.87;69.03
55550;BME280;41397;49.972;18.944;2023-12-29T02:07:34;101779.11;;;10.88;69.03
55550;BME280;41397;49.972;18.944;2023-12-29T02:10:35;101782.71;;;10.89;69.04
55550;BME280;41397;49.972;18.944;2023-12-29T02:13:38;101787.48;;;10.85;68.83
55550;BME280;41397;49.972;18.944;2023-12-29T02:16:47;101779.40;;;10.84;68.71
55550;BME280;41397;49.972;18.944;2023-12-29T02:19:53;101776.66;;;10.84;68.50
55550;BME280;41397;49.972;18.944;2023-12-29T02:22:54;101774.14;;;10.81;68.70
55550;BME280;41397;49.972;18.944;2023-12-29T02:26:01;101770.63;;;10.79;68.42
55550;BME280;41397;49.972;18.944;2023-12-29T02:29:04;101761.75;;;10.75;68.61
55550;BME280;41397;49.972;18.944;2023-12-29T02:32:13;101756.48;;;10.72;68.81
55550;BME280;41397;49.972;18.944;2023-12-29T02:35:23;101770.91;;;10.74;68.59
55550;BME280;41397;49.972;18.944;2023-12-29T02:38:26;101754.72;;;10.71;68.96
55550;BME280;41397;49.972;18.944;2023-12-29T02:41:31;101761.39;;;10.67;68.68
55550;BME280;41397;49.972;18.944;2023-12-29T02:44:32;101756.12;;;10.64;69.07
55550;BME280;41397;49.972;18.944;2023-12-29T02:47:34;101750.65;;;10.64;68.80
55550;BME280;41397;49.972;18.944;2023-12-29T02:50:35;101738.05;;;10.61;69.24
55550;BME280;41397;49.972;18.944;2023-12-29T02:53:36;101735.32;;;10.61;69.23
55550;BME280;41397;49.972;18.944;2023-12-29T02:56:37;101734.41;;;10.61;69.25
55550;BME280;41397;49.972;18.944;2023-12-29T02:59:38;101732.59;;;10.61;69.37
55550;BME280;41397;49.972;18.944;2023-12-29T03:02:40;101724.56;;;10.58;69.48
55550;BME280;41397;49.972;18.944;2023-12-29T03:05:41;101727.50;;;10.55;69.27
55550;BME280;41397;49.972;18.944;2023-12-29T03:08:42;101724.77;;;10.55;69.56
55550;BME280;41397;49.972;18.944;2023-12-29T03:11:46;101724.77;;;10.55;69.72
55550;BME280;41397;49.972;18.944;2023-12-29T03:14:47;101729.27;;;10.56;69.96
55550;BME280;41397;49.972;18.944;2023-12-29T03:17:49;101727.63;;;10.54;69.70
55550;BME280;41397;49.972;18.944;2023-12-29T03:20:50;101719.41;;;10.54;69.86
55550;BME280;41397;49.972;18.944;2023-12-29T03:23:51;101712.95;;;10.55;69.55
55550;BME280;41397;49.972;18.944;2023-12-29T03:26:52;101711.99;;;10.56;69.36
55550;BME280;41397;49.972;18.944;2023-12-29T03:29:53;101706.70;;;10.53;68.96
55550;BME280;41397;49.972;18.944;2023-12-29T03:32:55;101711.00;;;10.57;68.99
55550;BME280;41397;49.972;18.944;2023-12-29T03:35:56;101702.66;;;10.58;68.83
55550;BME280;41397;49.972;18.944;2023-12-29T03:38:57;101698.76;;;10.62;68.55
55550;BME280;41397;49.972;18.944;2023-12-29T03:41:59;101693.20;;;10.64;68.04
55550;BME280;41397;49.972;18.944;2023-12-29T03:45:03;101694.95;;;10.65;68.01
55550;BME280;41397;49.972;18.944;2023-12-29T03:48:04;101696.60;;;10.68;67.70
55550;BME280;41397;49.972;18.944;2023-12-29T03:51:06;101685.74;;;10.66;67.60
55550;BME280;41397;49.972;18.944;2023-12-29T03:54:07;101682.05;;;10.67;67.51
55550;BME280;41397;49.972;18.944;2023-12-29T03:57:10;101671.98;;;10.68;66.96
55550;BME280;41397;49.972;18.944;2023-12-29T04:00:13;101677.45;;;10.68;66.70
55550;BME280;41397;49.972;18.944;2023-12-29T04:03:18;101670.98;;;10.69;66.35
55550;BME280;41397;49.972;18.944;2023-12-29T04:06:19;101666.38;;;10.69;66.37
55550;BME280;41397;49.972;18.944;2023-12-29T04:09:21;101670.98;;;10.69;66.12
55550;BME280;41397;49.972;18.944;2023-12-29T04:12:22;101658.09;;;10.71;66.26
55550;BME280;41397;49.972;18.944;2023-12-29T04:15:23;101656.13;;;10.73;66.01
55550;BME280;41397;49.972;18.944;2023-12-29T04:18:25;101646.05;;;10.73;65.85
55550;BME280;41397;49.972;18.944;2023-12-29T04:21:26;101660.52;;;10.75;66.00
55550;BME280;41397;49.972;18.944;2023-12-29T04:24:27;101660.52;;;10.75;65.95
55550;BME280;41397;49.972;18.944;2023-12-29T04:27:29;101664.00;;;10.77;65.83
55550;BME280;41397;49.972;18.944;2023-12-29T04:30:30;101664.00;;;10.77;66.06
55550;BME280;41397;49.972;18.944;2023-12-29T04:33:34;101671.25;;;10.78;65.80
55550;BME280;41397;49.972;18.944;2023-12-29T04:36:35;101662.91;;;10.80;66.00
55550;BME280;41397;49.972;18.944;2023-12-29T04:39:37;101656.36;;;10.82;65.89
55550;BME280;41397;49.972;18.944;2023-12-29T04:42:38;101661.73;;;10.84;65.72
55550;BME280;41397;49.972;18.944;2023-12-29T04:45:42;101659.78;;;10.86;65.83
55550;BME280;41397;49.972;18.944;2023-12-29T04:48:43;101648.49;;;10.91;65.95
55550;BME280;41397;49.972;18.944;2023-12-29T04:51:44;101652.88;;;10.93;65.73
55550;BME280;41397;49.972;18.944;2023-12-29T04:54:49;101660.99;;;10.95;65.81
55550;BME280;41397;49.972;18.944;2023-12-29T04:57:50;101666.25;;;10.98;65.90
55550;BME280;41397;49.972;18.944;2023-12-29T05:00:51;101675.11;;;11.01;65.76
55550;BME280;41397;49.972;18.944;2023-12-29T05:03:53;101670.52;;;11.02;65.70
55550;BME280;41397;49.972;18.944;2023-12-29T05:06:54;101667.77;;;11.02;65.65
55550;BME280;41397;49.972;18.944;2023-12-29T05:09:58;101680.59;;;11.01;65.96
55550;BME280;41397;49.972;18.944;2023-12-29T05:12:59;101661.98;;;11.06;66.25
55550;BME280;41397;49.972;18.944;2023-12-29T05:16:01;101663.64;;;11.09;66.00
55550;BME280;41397;49.972;18.944;2023-12-29T05:19:04;101663.55;;;11.10;65.78
55550;BME280;41397;49.972;18.944;2023-12-29T05:22:06;101672.63;;;11.11;65.97
55550;BME280;41397;49.972;18.944;2023-12-29T05:25:07;101658.72;;;11.14;66.21
55550;BME280;41397;49.972;18.944;2023-12-29T05:28:09;101656.85;;;11.15;65.92
55550;BME280;41397;49.972;18.944;2023-12-29T05:31:10;101659.50;;;11.16;66.11
55550;BME280;41397;49.972;18.944;2023-12-29T05:34:14;101660.23;;;11.18;66.14
55550;BME280;41397;49.972;18.944;2023-12-29T05:37:15;101669.23;;;11.20;66.41
55550;BME280;41397;49.972;18.944;2023-12-29T05:40:17;101658.41;;;11.19;66.51
55550;BME280;41397;49.972;18.944;2023-12-29T05:43:19;101679.31;;;11.20;66.57
55550;BME280;41397;49.972;18.944;2023-12-29T05:46:22;101673.93;;;11.18;66.77
55550;BME280;41397;49.972;18.944;2023-12-29T05:49:26;101677.44;;;11.20;66.61
55550;BME280;41397;49.972;18.944;2023-12-29T05:52:27;101681.83;;;11.23;66.75
55550;BME280;41397;49.972;18.944;2023-12-29T05:55:29;101686.54;;;11.21;66.77
55550;BME280;41397;49.972;18.944;2023-12-29T05:58:31;101684.70;;;11.21;67.19
55550;BME280;41397;49.972;18.944;2023-12-29T06:01:32;101685.66;;;11.20;67.10
55550;BME280;41397;49.972;18.944;2023-12-29T06:04:34;101691.05;;;11.22;67.20
55550;BME280;41397;49.972;18.944;2023-12-29T06:07:35;101689.39;;;11.19;67.37
55550;BME280;41397;49.972;18.944;2023-12-29T06:10:38;101697.60;;;11.19;67.36
55550;BME280;41397;49.972;18.944;2023-12-29T06:13:39;101700.21;;;11.21;67.53
55550;BME280;41397;49.972;18.944;2023-12-29T06:16:41;101701.21;;;11.20;67.70
55550;BME280;41397;49.972;18.944;2023-12-29T06:19:42;101700.99;;;11.23;67.73
55550;BME280;41397;49.972;18.944;2023-12-29T06:22:46;101696.39;;;11.23;67.74
55550;BME280;41397;49.972;18.944;2023-12-29T06:25:48;101692.69;;;11.24;67.74
55550;BME280;41397;49.972;18.944;2023-12-29T06:28:49;101685.44;;;11.23;67.96
55550;BME280;41397;49.972;18.944;2023-12-29T06:31:51;101661.67;;;11.24;67.79
55550;BME280;41397;49.972;18.944;2023-12-29T06:34:54;101655.31;;;11.23;67.94
55550;BME280;41397;49.972;18.944;2023-12-29T06:37:55;101666.27;;;11.23;67.92
55550;BME280;41397;49.972;18.944;2023-12-29T06:40:56;101654.36;;;11.24;68.24
55550;BME280;41397;49.972;18.944;2023-12-29T06:43:58;101648.10;;;11.22;68.38
55550;BME280;41397;49.972;18.944;2023-12-29T06:47:02;101657.09;;;11.24;68.09
55550;BME280;41397;49.972;18.944;2023-12-29T06:50:08;101645.23;;;11.24;67.85
55550;BME280;41397;49.972;18.944;2023-12-29T06:53:13;101657.09;;;11.24;67.72
55550;BME280;41397;49.972;18.944;2023-12-29T06:56:16;101648.88;;;11.24;67.60
55550;BME280;41397;49.972;18.944;2023-12-29T06:59:18;101651.40;;;11.27;67.41
55550;BME280;41397;49.972;18.944;2023-12-29T07:02:22;101662.35;;;11.27;67.16
55550;BME280;41397;49.972;18.944;2023-12-29T07:05:23;101676.81;;;11.29;67.43
55550;BME280;41397;49.972;18.944;2023-12-29T07:08:25;101677.69;;;11.30;67.21
55550;BME280;41397;49.972;18.944;2023-12-29T07:11:26;101675.50;;;11.35;67.30
55550;BME280;41397;49.972;18.944;2023-12-29T07:14:27;101675.50;;;11.35;67.33
55550;BME280;41397;49.972;18.944;2023-12-29T07:17:29;101677.89;;;11.40;67.32
55550;BME280;41397;49.972;18.944;2023-12-29T07:20:30;101671.77;;;11.49;67.24
55550;BME280;41397;49.972;18.944;2023-12-29T07:23:32;101668.46;;;11.56;67.25
55550;BME280;41397;49.972;18.944;2023-12-29T07:26:33;101686.67;;;11.70;67.03
55550;BME280;41397;49.972;18.944;2023-12-29T07:29:35;101682.93;;;11.84;66.93
55550;BME280;41397;49.972;18.944;2023-12-29T07:32:36;101687.77;;;11.93;66.37
55550;BME280;41397;49.972;18.944;2023-12-29T07:35:38;101685.56;;;11.98;65.93
55550;BME280;41397;49.972;18.944;2023-12-29T07:38:39;101678.84;;;12.03;65.62
55550;BME280;41397;49.972;18.944;2023-12-29T07:41:41;101670.52;;;12.04;65.45
55550;BME280;41397;49.972;18.944;2023-12-29T07:44:43;101683.13;;;12.07;65.29
55550;BME280;41397;49.972;18.944;2023-12-29T07:47:44;101686.84;;;12.06;65.42
55550;BME280;41397;49.972;18.944;2023-12-29T07:50:46;101667.65;;;12.06;65.21
55550;BME280;41397;49.972;18.944;2023-12-29T07:53:47;101675.88;;;12.06;65.00
55550;BME280;41397;49.972;18.944;2023-12-29T07:56:48;101679.16;;;12.11;64.82
55550;BME280;41397;49.972;18.944;2023-12-29T07:59:51;101684.08;;;12.18;65.00
55550;BME280;41397;49.972;18.944;2023-12-29T08:02:52;101676.35;;;12.36;64.44
55550;BME280;41397;49.972;18.944;2023-12-29T08:05:54;101662.46;;;12.51;64.12
55550;BME280;41397;49.972;18.944;2023-12-29T08:08:55;101679.16;;;12.72;63.51
55550;BME280;41397;49.972;18.944;2023-12-29T08:11:59;101678.48;;;12.92;63.34
55550;BME280;41397;49.972;18.944;2023-12-29T08:15:01;101667.95;;;13.10;62.53
55550;BME280;41397;49.972;18.944;2023-12-29T08:18:07;101688.69;;;13.25;62.33
55550;BME280;41397;49.972;18.944;2023-12-29T08:21:17;101689.15;;;13.43;62.11
55550;BME280;41397;49.972;18.944;2023-12-29T08:24:19;101698.28;;;13.55;61.48
55550;BME280;41397;49.972;18.944;2023-12-29T08:27:28;101694.66;;;13.54;61.37
55550;BME280;41397;49.972;18.944;2023-12-29T08:30:29;101692.28;;;13.61;61.36
55550;BME280;41397;49.972;18.944;2023-12-29T08:33:30;101694.41;;;13.58;61.14
55550;BME280;41397;49.972;18.944;2023-12-29T08:36:33;101681.27;;;13.50;60.76
55550;BME280;41397;49.972;18.944;2023-12-29T08:39:34;101688.39;;;13.41;61.26
55550;BME280;41397;49.972;18.944;2023-12-29T08:42:35;101686.51;;;13.42;62.22
55550;BME280;41397;49.972;18.944;2023-12-29T08:45:36;101695.52;;;13.44;61.69
55550;BME280;41397;49.972;18.944;2023-12-29T08:48:39;101696.54;;;13.54;61.49
55550;BME280;41397;49.972;18.944;2023-12-29T08:51:41;101705.66;;;13.66;62.61
55550;BME280;41397;49.972;18.944;2023-12-29T08:54:42;101691.81;;;13.79;61.21
55550;BME280;41397;49.972;18.944;2023-12-29T08:57:46;101692.83;;;13.89;60.81
55550;BME280;41397;49.972;18.944;2023-12-29T09:00:47;101683.20;;;13.94;60.55
55550;BME280;41397;49.972;18.944;2023-12-29T09:03:49;101682.33;;;14.05;60.40
55550;BME280;41397;49.972;18.944;2023-12-29T09:06:50;101684.29;;;14.14;59.95
55550;BME280;41397;49.972;18.944;2023-12-29T09:09:51;101681.90;;;14.21;59.88
55550;BME280;41397;49.972;18.944;2023-12-29T09:12:52;101682.13;;;14.29;59.63
55550;BME280;41397;49.972;18.944;2023-12-29T09:15:58;101682.77;;;14.33;59.59
55550;BME280;41397;49.972;18.944;2023-12-29T09:18:59;101675.13;;;14.36;59.67
55550;BME280;41397;49.972;18.944;2023-12-29T09:22:00;101691.98;;;14.43;59.67
55550;BME280;41397;49.972;18.944;2023-12-29T09:25:02;101681.13;;;14.41;59.69
55550;BME280;41397;49.972;18.944;2023-12-29T09:28:05;101680.26;;;14.41;59.54
55550;BME280;41397;49.972;18.944;2023-12-29T09:31:06;101677.24;;;14.44;59.70
55550;BME280;41397;49.972;18.944;2023-12-29T09:34:07;101666.35;;;14.42;59.52
55550;BME280;41397;49.972;18.944;2023-12-29T09:37:09;101667.21;;;14.43;59.53
55550;BME280;41397;49.972;18.944;2023-12-29T09:40:13;101664.47;;;14.43;59.74
55550;BME280;41397;49.972;18.944;2023-12-29T09:43:14;101660.35;;;14.49;59.34
55550;BME280;41397;49.972;18.944;2023-12-29T09:46:19;101652.09;;;14.49;59.29
55550;BME280;41397;49.972;18.944;2023-12-29T09:49:23;101649.07;;;14.52;58.78
55550;BME280;41397;49.972;18.944;2023-12-29T09:52:25;101652.73;;;14.52;58.57
55550;BME280;41397;49.972;18.944;2023-12-29T09:55:26;101629.70;;;14.53;58.85
55550;BME280;41397;49.972;18.944;2023-12-29T09:58:28;101639.83;;;14.53;58.76
55550;BME280;41397;49.972;18.944;2023-12-29T10:01:30;101643.57;;;14.52;58.45
55550;BME280;41397;49.972;18.944;2023-12-29T10:04:33;101632.33;;;14.55;58.96
55550;BME280;41397;49.972;18.944;2023-12-29T10:07:37;101631.81;;;14.50;58.67
55550;BME280;41397;49.972;18.944;2023-12-29T10:10:39;101623.06;;;14.44;58.42
55550;BME280;41397;49.972;18.944;2023-12-29T10:13:43;101622.95;;;14.46;58.83
55550;BME280;41397;49.972;18.944;2023-12-29T10:16:53;101611.05;;;14.46;58.49
55550;BME280;41397;49.972;18.944;2023-12-29T10:20:08;101604.81;;;14.43;58.66
55550;BME280;41397;49.972;18.944;2023-12-29T10:23:23;101598.56;;;14.41;58.54
55550;BME280;41397;49.972;18.944;2023-12-29T10:26:26;101589.55;;;14.39;58.99
55550;BME280;41397;49.972;18.944;2023-12-29T10:29:27;101588.95;;;14.36;58.99
55550;BME280;41397;49.972;18.944;2023-12-29T10:32:29;101584.70;;;14.32;58.76
55550;BME280;41397;49.972;18.944;2023-12-29T10:35:31;101588.85;;;14.26;59.07
55550;BME280;41397;49.972;18.944;2023-12-29T10:38:34;101593.37;;;14.27;59.25
55550;BME280;41397;49.972;18.944;2023-12-29T10:41:36;101607.38;;;14.24;59.28
55550;BME280;41397;49.972;18.944;2023-12-29T10:44:38;101603.88;;;14.22;59.26
55550;BME280;41397;49.972;18.944;2023-12-29T10:47:43;101590.24;;;14.20;59.28
55550;BME280;41397;49.972;18.944;2023-12-29T10:50:50;101591.52;;;14.16;59.30
55550;BME280;41397;49.972;18.944;2023-12-29T10:53:55;101591.78;;;14.13;59.43
55550;BME280;41397;49.972;18.944;2023-12-29T10:57:02;101574.64;;;14.10;59.29
55550;BME280;41397;49.972;18.944;2023-12-29T11:00:07;101587.78;;;14.06;59.22
55550;BME280;41397;49.972;18.944;2023-12-29T11:03:16;101585.15;;;14.05;59.45
55550;BME280;41397;49.972;18.944;2023-12-29T11:06:18;101578.52;;;14.07;59.62
55550;BME280;41397;49.972;18.944;2023-12-29T11:09:32;101566.80;;;14.05;59.35
55550;BME280;41397;49.972;18.944;2023-12-29T11:12:36;101566.31;;;14.00;59.18
55550;BME280;41397;49.972;18.944;2023-12-29T11:15:42;101582.05;;;13.98;59.55
55550;BME280;41397;49.972;18.944;2023-12-29T11:18:47;101586.31;;;13.91;59.27
55550;BME280;41397;49.972;18.944;2023-12-29T11:21:57;101592.94;;;13.88;59.40
55550;BME280;41397;49.972;18.944;2023-12-29T11:24:59;101595.32;;;13.93;59.43
55550;BME280;41397;49.972;18.944;2023-12-29T11:28:00;101592.45;;;13.94;59.57
55550;BME280;41397;49.972;18.944;2023-12-29T11:31:02;101602.55;;;13.94;59.58
55550;BME280;41397;49.972;18.944;2023-12-29T11:34:18;101596.33;;;13.92;59.84
55550;BME280;41397;49.972;18.944;2023-12-29T11:43:38;101583.21;;;13.84;59.67
55550;BME280;41397;49.972;18.944;2023-12-29T11:46:42;101584.59;;;13.79;59.56
55550;BME280;41397;49.972;18.944;2023-12-29T11:52:58;101570.47;;;13.83;59.93
55550;BME280;41397;49.972;18.944;2023-12-29T11:55:59;101584.71;;;13.77;59.62
55550;BME280;41397;49.972;18.944;2023-12-29T12:02:28;101587.72;;;13.74;59.46
55550;BME280;41397;49.972;18.944;2023-12-29T12:08:41;101592.85;;;13.67;58.84
55550;BME280;41397;49.972;18.944;2023-12-29T12:11:43;101575.11;;;13.60;59.29
55550;BME280;41397;49.972;18.944;2023-12-29T12:14:53;101575.71;;;13.64;59.08
55550;BME280;41397;49.972;18.944;2023-12-29T12:18:03;101584.87;;;13.64;59.07
55550;BME280;41397;49.972;18.944;2023-12-29T12:21:08;101593.72;;;13.68;59.07
55550;BME280;41397;49.972;18.944;2023-12-29T12:24:09;101580.84;;;13.68;59.13
55550;BME280;41397;49.972;18.944;2023-12-29T12:27:10;101594.09;;;13.63;58.86
55550;BME280;41397;49.972;18.944;2023-12-29T12:30:20;101595.61;;;13.67;59.05
55550;BME280;41397;49.972;18.944;2023-12-29T12:33:21;101596.58;;;13.66;59.16
55550;BME280;41397;49.972;18.944;2023-12-29T12:36:26;101601.10;;;13.67;58.96
55550;BME280;41397;49.972;18.944;2023-12-29T12:42:40;101587.22;;;13.69;58.90
55550;BME280;41397;49.972;18.944;2023-12-29T12:45:53;101586.34;;;13.68;58.41
55550;BME280;41397;49.972;18.944;2023-12-29T12:48:55;101582.12;;;13.64;57.85
55550;BME280;41397;49.972;18.944;2023-12-29T12:51:56;101581.86;;;13.67;58.18
55550;BME280;41397;49.972;18.944;2023-12-29T12:54:58;101579.23;;;13.66;58.26
55550;BME280;41397;49.972;18.944;2023-12-29T12:57:59;101587.10;;;13.70;58.22
55550;BME280;41397;49.972;18.944;2023-12-29T13:01:01;101581.98;;;13.66;58.26
55550;BME280;41397;49.972;18.944;2023-12-29T13:04:04;101580.48;;;13.62;58.02
55550;BME280;41397;49.972;18.944;2023-12-29T13:07:05;101577.75;;;13.62;57.81
55550;BME280;41397;49.972;18.944;2023-12-29T13:10:07;101578.00;;;13.59;57.83
55550;BME280;41397;49.972;18.944;2023-12-29T13:13:12;101561.52;;;13.59;57.71
55550;BME280;41397;49.972;18.944;2023-12-29T13:16:15;101566.87;;;13.60;57.82
55550;BME280;41397;49.972;18.944;2023-12-29T13:19:21;101567.88;;;13.59;58.14
55550;BME280;41397;49.972;18.944;2023-12-29T13:22:25;101576.60;;;13.53;58.26
55550;BME280;41397;49.972;18.944;2023-12-29T13:25:31;101577.61;;;13.52;58.33
55550;BME280;41397;49.972;18.944;2023-12-29T13:28:32;101583.11;;;13.52;58.00
55550;BME280;41397;49.972;18.944;2023-12-29T13:31:34;101595.58;;;13.45;58.23
55550;BME280;41397;49.972;18.944;2023-12-29T13:34:42;101593.73;;;13.45;57.99
55550;BME280;41397;49.972;18.944;2023-12-29T13:41:11;101584.59;;;13.45;58.36
55550;BME280;41397;49.972;18.944;2023-12-29T13:44:14;101584.23;;;13.38;58.33
55550;BME280;41397;49.972;18.944;2023-12-29T13:47:16;101582.36;;;13.39;58.50
55550;BME280;41397;49.972;18.944;2023-12-29T13:50:18;101589.22;;;13.33;58.06
55550;BME280;41397;49.972;18.944;2023-12-29T13:53:21;101580.36;;;13.29;58.21
55550;BME280;41397;49.972;18.944;2023-12-29T13:56:23;101574.73;;;13.31;58.41
55550;BME280;41397;49.972;18.944;2023-12-29T13:59:30;101579.35;;;13.30;58.45
55550;BME280;41397;49.972;18.944;2023-12-29T14:02:35;101578.74;;;13.27;58.43
55550;BME280;41397;49.972;18.944;2023-12-29T14:08:50;101588.56;;;13.18;59.06
55550;BME280;41397;49.972;18.944;2023-12-29T14:11:51;101579.81;;;13.13;59.18
55550;BME280;41397;49.972;18.944;2023-12-29T14:14:53;101587.80;;;13.16;59.16
55550;BME280;41397;49.972;18.944;2023-12-29T14:17:57;101591.05;;;13.10;59.28
55550;BME280;41397;49.972;18.944;2023-12-29T14:20:59;101589.28;;;13.09;59.38
55550;BME280;41397;49.972;18.944;2023-12-29T14:24:07;101587.66;;;13.06;59.70
55550;BME280;41397;49.972;18.944;2023-12-29T14:27:12;101592.17;;;13.07;59.78
55550;BME280;41397;49.972;18.944;2023-12-29T14:30:19;101593.53;;;13.02;59.96
55550;BME280;41397;49.972;18.944;2023-12-29T14:33:21;101596.02;;;13.05;60.08
55550;BME280;41397;49.972;18.944;2023-12-29T14:36:24;101605.38;;;13.02;60.04
55550;BME280;41397;49.972;18.944;2023-12-29T14:39:25;101604.38;;;13.03;60.00
55550;BME280;41397;49.972;18.944;2023-12-29T14:42:26;101601.88;;;13.00;60.09
55550;BME280;41397;49.972;18.944;2023-12-29T14:45:27;101613.87;;;12.99;60.04
55550;BME280;41397;49.972;18.944;2023-12-29T14:48:32;101614.11;;;12.96;60.22
55550;BME280;41397;49.972;18.944;2023-12-29T14:51:33;101610.47;;;12.96;60.39
55550;BME280;41397;49.972;18.944;2023-12-29T14:54:34;101618.84;;;12.94;60.21
55550;BME280;41397;49.972;18.944;2023-12-29T14:57:35;101623.56;;;12.92;60.29
55550;BME280;41397;49.972;18.944;2023-12-29T15:00:43;101621.06;;;12.89;60.41
55550;BME280;41397;49.972;18.944;2023-12-29T15:03:47;101615.06;;;12.84;60.46
55550;BME280;41397;49.972;18.944;2023-12-29T15:06:48;101622.42;;;12.83;60.58
55550;BME280;41397;49.972;18.944;2023-12-29T15:09:50;101610.68;;;12.81;60.67
55550;BME280;41397;49.972;18.944;2023-12-29T15:12:52;101611.80;;;12.79;60.59
55550;BME280;41397;49.972;18.944;2023-12-29T15:15:53;101607.17;;;12.79;60.67
55550;BME280;41397;49.972;18.944;2023-12-29T15:18:54;101617.53;;;12.76;60.74
55550;BME280;41397;49.972;18.944;2023-12-29T15:21:55;101610.30;;;12.75;60.82
55550;BME280;41397;49.972;18.944;2023-12-29T15:24:57;101603.53;;;12.68;60.58
55550;BME280;41397;49.972;18.944;2023-12-29T15:27:58;101597.06;;;12.69;60.81
55550;BME280;41397;49.972;18.944;2023-12-29T15:30:59;101606.27;;;12.68;60.78
55550;BME280;41397;49.972;18.944;2023-12-29T15:34:00;101607.28;;;12.66;60.89
55550;BME280;41397;49.972;18.944;2023-12-29T15:37:03;101612.00;;;12.64;60.83
55550;BME280;41397;49.972;18.944;2023-12-29T15:40:07;101598.17;;;12.66;61.03
55550;BME280;41397;49.972;18.944;2023-12-29T15:43:09;101595.55;;;12.64;62.18
55550;BME280;41397;49.972;18.944;2023-12-29T15:46:14;101582.83;;;12.63;63.15
55550;BME280;41397;49.972;18.944;2023-12-29T15:49:16;101588.41;;;12.62;61.55
55550;BME280;41397;49.972;18.944;2023-12-29T15:52:20;101585.81;;;12.60;61.39
55550;BME280;41397;49.972;18.944;2023-12-29T15:55:21;101583.07;;;12.60;61.16
55550;BME280;41397;49.972;18.944;2023-12-29T15:58:22;101582.30;;;12.58;61.17
55550;BME280;41397;49.972;18.944;2023-12-29T16:01:24;101573.66;;;12.52;61.27
55550;BME280;41397;49.972;18.944;2023-12-29T16:04:28;101579.91;;;12.54;61.26
55550;BME280;41397;49.972;18.944;2023-12-29T16:07:29;101579.91;;;12.54;61.29